Time;durP1;ratioP1;P1;durP2;ratioP2;P2;SDS_P1;SDS_P2;PMS_P1;PMS_P2;Temp;Humidity;BMP_temperature;BMP_pressure;BME280_temperature;BME280_humidity;BME280_pressure;Samples;Min_cycle;Max_cycle;Signal;HPM_P1;HPM_P2
2021/09/30 00:01:17;;;;;;;6.20;1.97;;;9.70;99.90;;;;;;5060341;28;20307;-72
2021/09/30 00:03:42;;;;;;;4.77;2.20;;;9.70;99.90;;;;;;5060374;28;20178;-72
2021/09/30 00:06:08;;;;;;;4.53;2.97;;;9.60;99.90;;;;;;5055349;28;20269;-72
2021/09/30 00:08:33;;;;;;;4.53;2.47;;;9.60;99.90;;;;;;5061231;28;20289;-72
2021/09/30 00:11:05;;;;;;;2.57;2.10;;;9.60;99.90;;;;;;5060798;28;20202;-72
2021/09/30 00:35:43;;;;;;;4.13;2.70;;;9.80;99.90;;;;;;5061941;28;20524;-73
2021/09/30 00:41:17;;;;;;;4.90;2.57;;;9.80;99.90;;;;;;5062063;28;20509;-73
2021/09/30 00:46:42;;;;;;;3.20;2.57;;;9.80;99.90;;;;;;5079461;28;20929;-73
2021/09/30 00:49:17;;;;;;;4.53;2.70;;;9.70;99.90;;;;;;5054119;28;20430;-73
2021/09/30 00:51:55;;;;;;;4.83;2.93;;;9.70;99.90;;;;;;5054976;28;20418;-73
2021/09/30 02:29:45;;;;;;;5.50;3.23;;;9.80;99.90;;;;;;5076996;27;21136;-71
2021/09/30 02:35:16;;;;;;;3.80;2.20;;;9.70;99.90;;;;;;5055824;28;20445;-72
2021/09/30 03:00:16;;;;;;;5.80;2.73;;;9.80;99.90;;;;;;5059705;28;20422;-73
2021/09/30 03:02:46;;;;;;;4.13;3.13;;;9.80;99.90;;;;;;5062143;28;20454;-73
2021/09/30 03:05:14;;;;;;;4.27;2.90;;;9.80;99.90;;;;;;5060210;28;20570;-73
2021/09/30 03:07:41;;;;;;;4.87;3.07;;;9.80;99.90;;;;;;5060987;28;20899;-73
2021/09/30 03:10:07;;;;;;;4.50;3.00;;;9.70;99.90;;;;;;5056832;28;20460;-72
2021/09/30 03:12:35;;;;;;;5.23;3.10;;;9.70;99.90;;;;;;5061785;28;20767;-73
2021/09/30 03:18:11;;;;;;;3.50;2.40;;;9.70;99.90;;;;;;5039872;28;20514;-73
2021/09/30 03:22:03;;;;;;;5.23;2.43;;;9.70;99.90;;;;;;5037633;28;20419;-73
2021/09/30 03:23:30;;;;;;;4.40;2.50;;;9.70;99.90;;;;;;5039848;28;20419;-73
2021/09/30 03:25:56;;;;;;;7.33;3.00;;;9.70;99.90;;;;;;5040498;28;20420;-72
2021/09/30 03:28:23;;;;;;;10.53;3.53;;;9.70;99.90;;;;;;5040883;28;20465;-73
2021/09/30 03:30:53;;;;;;;3.10;2.60;;;9.60;99.90;;;;;;5036357;28;20278;-73
2021/09/30 03:33:19;;;;;;;8.50;3.50;;;9.60;99.90;;;;;;5040446;28;20411;-73
2021/09/30 03:35:45;;;;;;;5.80;2.60;;;9.60;99.90;;;;;;5040813;28;20426;-73
2021/09/30 03:38:11;;;;;;;2.90;2.60;;;9.60;99.90;;;;;;5037148;28;20427;-73
2021/09/30 03:40:37;;;;;;;4.60;2.90;;;9.60;99.90;;;;;;5040872;28;20411;-73
2021/09/30 03:43:04;;;;;;;4.17;2.40;;;9.50;99.90;;;;;;5041203;28;20262;-73
2021/09/30 03:45:30;;;;;;;5.10;3.00;;;9.50;99.90;;;;;;5048317;28;20444;-73
2021/09/30 03:47:56;;;;;;;5.50;2.70;;;9.50;99.90;;;;;;5058251;28;20402;-73
2021/09/30 03:50:25;;;;;;;5.33;3.00;;;9.50;99.90;;;;;;5058423;28;20175;-73
2021/09/30 04:00:57;;;;;;;5.87;3.57;;;9.30;99.90;;;;;;5053858;28;20908;-72
2021/09/30 04:03:23;;;;;;;4.33;2.60;;;9.30;99.90;;;;;;5059452;28;20398;-72
2021/09/30 04:05:49;;;;;;;6.13;2.40;;;9.30;99.90;;;;;;5054487;28;20696;-72
2021/09/30 04:08:14;;;;;;;4.97;3.67;;;9.30;99.90;;;;;;5045010;28;20556;-72
2021/09/30 04:10:40;;;;;;;7.03;2.73;;;9.30;99.90;;;;;;5041781;28;20685;-72
2021/09/30 04:13:05;;;;;;;5.23;3.50;;;9.30;99.90;;;;;;5042105;28;20633;-72
2021/09/30 04:15:31;;;;;;;5.67;3.47;;;9.20;99.90;;;;;;5036675;28;20264;-72
2021/09/30 04:17:56;;;;;;;6.93;3.53;;;9.20;99.90;;;;;;5049654;28;20250;-72
2021/09/30 04:20:23;;;;;;;6.93;3.30;;;9.20;99.90;;;;;;5057128;28;20218;-72
2021/09/30 04:22:48;;;;;;;5.93;3.60;;;9.20;99.90;;;;;;5045436;28;20212;-72
2021/09/30 04:25:14;;;;;;;8.47;4.00;;;9.20;99.90;;;;;;5047479;28;20466;-72
2021/09/30 04:27:39;;;;;;;6.47;3.40;;;9.10;99.90;;;;;;5052365;28;20544;-72
2021/09/30 04:30:06;;;;;;;6.17;3.60;;;9.10;99.90;;;;;;5043029;28;20223;-72
2021/09/30 04:32:32;;;;;;;6.33;3.90;;;9.10;99.90;;;;;;5040373;28;20180;-72
2021/09/30 04:34:57;;;;;;;4.53;3.00;;;9.10;99.90;;;;;;5040826;28;20772;-72
2021/09/30 04:37:25;;;;;;;4.63;3.13;;;9.10;99.90;;;;;;5036121;28;20964;-72
2021/09/30 04:39:51;;;;;;;5.70;2.90;;;9.10;99.90;;;;;;5047342;28;20218;-72
2021/09/30 04:42:16;;;;;;;5.43;3.80;;;9.10;99.90;;;;;;5057294;28;20446;-72
2021/09/30 04:44:42;;;;;;;5.57;3.43;;;9.10;99.90;;;;;;5040519;28;20410;-72
2021/09/30 04:47:08;;;;;;;7.30;3.60;;;9.10;99.90;;;;;;5046562;28;20185;-72
2021/09/30 04:49:33;;;;;;;5.20;3.67;;;9.10;99.90;;;;;;5039686;28;20267;-72
2021/09/30 04:51:59;;;;;;;4.50;4.00;;;9.00;99.90;;;;;;5039138;28;20176;-72
2021/09/30 04:54:24;;;;;;;7.13;3.70;;;9.00;99.90;;;;;;5042753;28;20511;-72
2021/09/30 04:56:50;;;;;;;10.17;3.50;;;9.00;99.90;;;;;;5045726;28;20211;-72
2021/09/30 04:59:15;;;;;;;7.57;3.43;;;9.00;99.90;;;;;;5042941;28;20563;-72
2021/09/30 05:01:41;;;;;;;7.20;3.23;;;9.00;99.90;;;;;;5044636;28;20181;-72
2021/09/30 05:04:06;;;;;;;7.40;4.10;;;9.00;99.90;;;;;;5048833;28;20240;-72
2021/09/30 05:06:32;;;;;;;5.30;3.30;;;8.90;99.90;;;;;;5041686;28;20177;-72
2021/09/30 05:08:59;;;;;;;8.20;3.73;;;8.90;99.90;;;;;;5031393;28;20166;-72
2021/09/30 05:11:31;;;;;;;11.23;3.67;;;8.90;99.90;;;;;;5026490;28;20175;-72
2021/09/30 05:13:58;;;;;;;5.73;3.33;;;8.90;99.90;;;;;;5032977;28;20427;-72
2021/09/30 05:16:24;;;;;;;4.43;3.30;;;9.00;99.90;;;;;;5048143;28;20447;-72
2021/09/30 05:18:53;;;;;;;9.73;3.50;;;9.00;99.90;;;;;;5043926;28;20853;-72
2021/09/30 05:21:19;;;;;;;4.80;3.80;;;8.90;99.90;;;;;;5042232;28;20431;-72
2021/09/30 05:23:44;;;;;;;12.43;4.03;;;8.90;99.90;;;;;;5047694;28;20784;-72
2021/09/30 05:26:10;;;;;;;5.47;3.73;;;8.90;99.90;;;;;;5040531;28;20203;-72
2021/09/30 05:28:36;;;;;;;9.00;3.60;;;8.90;99.90;;;;;;5047280;28;20180;-72
2021/09/30 05:31:02;;;;;;;7.00;3.50;;;9.00;99.90;;;;;;5045323;28;20435;-72
2021/09/30 05:33:27;;;;;;;10.00;3.53;;;9.00;99.90;;;;;;5046780;28;20169;-72
2021/09/30 05:35:53;;;;;;;6.53;3.90;;;9.00;99.90;;;;;;5034700;28;20182;-72
2021/09/30 05:38:19;;;;;;;4.73;3.57;;;8.90;99.90;;;;;;5044142;28;20195;-72
2021/09/30 05:40:48;;;;;;;8.07;3.40;;;8.90;99.90;;;;;;5038949;28;20519;-72
2021/09/30 05:43:22;;;;;;;8.10;4.40;;;8.90;99.90;;;;;;5042648;28;20192;-72
2021/09/30 05:45:53;;;;;;;6.97;3.40;;;9.00;99.90;;;;;;5041581;28;20790;-72
2021/09/30 05:48:19;;;;;;;10.30;3.90;;;9.00;99.90;;;;;;5048749;28;20414;-72
2021/09/30 05:50:45;;;;;;;7.43;3.53;;;9.00;99.90;;;;;;5040457;28;20419;-72
2021/09/30 05:53:10;;;;;;;3.93;2.80;;;9.00;99.90;;;;;;5045760;28;20502;-72
2021/09/30 05:55:36;;;;;;;8.83;3.53;;;9.00;99.90;;;;;;5047339;28;21239;-72
2021/09/30 05:58:01;;;;;;;5.70;4.10;;;9.00;99.90;;;;;;5042202;28;20753;-72
2021/09/30 06:00:38;;;;;;;5.23;3.40;;;9.10;99.90;;;;;;5040422;28;20196;-72
2021/09/30 06:14:07;;;;;;;5.70;3.20;;;9.20;99.90;;;;;;5054631;28;21114;-72
2021/09/30 06:16:35;;;;;;;4.77;3.50;;;9.20;99.90;;;;;;5049472;28;20983;-72
2021/09/30 06:19:03;;;;;;;6.87;3.77;;;9.20;99.90;;;;;;5048521;28;20425;-72
2021/09/30 06:21:29;;;;;;;4.40;3.30;;;9.30;99.90;;;;;;5054194;28;20919;-72
2021/09/30 06:23:55;;;;;;;5.80;3.80;;;9.30;99.90;;;;;;5048857;28;20417;-72
2021/09/30 06:26:20;;;;;;;6.33;3.40;;;9.30;99.90;;;;;;5047813;28;20419;-72
2021/09/30 06:28:46;;;;;;;5.73;3.57;;;9.40;99.90;;;;;;5049368;28;20661;-72
2021/09/30 06:31:11;;;;;;;9.30;4.10;;;9.40;99.90;;;;;;5045280;28;20232;-72
2021/09/30 06:33:37;;;;;;;6.13;3.50;;;9.50;99.90;;;;;;5043755;28;20215;-72
2021/09/30 06:36:03;;;;;;;7.87;3.87;;;9.50;99.90;;;;;;5051098;28;20713;-72
2021/09/30 06:38:28;;;;;;;6.23;3.70;;;9.50;99.90;;;;;;5047442;28;20290;-73
2021/09/30 06:40:54;;;;;;;8.70;3.63;;;9.60;99.90;;;;;;5030986;28;20170;-72
2021/09/30 06:43:20;;;;;;;6.67;3.50;;;9.60;99.90;;;;;;5048708;28;20514;-72
2021/09/30 06:45:45;;;;;;;9.23;3.63;;;9.70;99.90;;;;;;5050754;28;20188;-72
2021/09/30 06:48:11;;;;;;;6.00;3.20;;;9.70;99.90;;;;;;5049654;28;20175;-72
2021/09/30 06:50:36;;;;;;;6.40;3.53;;;9.80;99.90;;;;;;5049067;28;20199;-72
2021/09/30 06:53:04;;;;;;;7.60;3.47;;;9.80;99.90;;;;;;5046238;28;20200;-73
2021/09/30 06:55:30;;;;;;;6.80;3.40;;;9.90;99.90;;;;;;5049464;28;20172;-72
2021/09/30 06:57:56;;;;;;;5.40;3.37;;;9.90;99.90;;;;;;5047818;28;21023;-72
2021/09/30 07:00:22;;;;;;;9.23;3.60;;;10.00;99.90;;;;;;5047343;28;20444;-72
2021/09/30 07:02:47;;;;;;;11.13;4.83;;;10.00;99.90;;;;;;5047595;28;20180;-72
2021/09/30 07:05:14;;;;;;;7.70;3.80;;;10.10;99.90;;;;;;5046916;28;20172;-72
2021/09/30 07:07:40;;;;;;;5.03;3.00;;;10.10;99.90;;;;;;5045250;28;20198;-72
2021/09/30 07:10:10;;;;;;;6.30;3.47;;;10.20;99.90;;;;;;5046279;28;20430;-73
2021/09/30 07:12:36;;;;;;;17.60;3.43;;;10.30;99.90;;;;;;5043146;28;20458;-72
2021/09/30 07:15:03;;;;;;;4.13;3.20;;;10.30;99.90;;;;;;5047343;28;20509;-72
2021/09/30 07:17:29;;;;;;;5.83;3.60;;;10.40;99.90;;;;;;5045597;28;20465;-72
2021/09/30 07:19:57;;;;;;;10.70;3.13;;;10.40;99.90;;;;;;5046891;28;20450;-72
2021/09/30 07:22:23;;;;;;;3.73;2.90;;;10.40;99.90;;;;;;5045818;28;20176;-72
2021/09/30 07:24:48;;;;;;;5.80;3.17;;;10.50;99.90;;;;;;5036730;28;20420;-72
2021/09/30 07:27:15;;;;;;;5.50;3.00;;;10.60;99.90;;;;;;5032936;28;20388;-72
2021/09/30 07:29:40;;;;;;;5.93;2.87;;;10.60;99.90;;;;;;5032919;28;20510;-72
2021/09/30 07:32:06;;;;;;;8.50;3.20;;;10.70;99.90;;;;;;5033211;28;20470;-72
2021/09/30 07:34:33;;;;;;;3.40;2.53;;;10.70;99.90;;;;;;5033755;28;20611;-72
2021/09/30 07:36:59;;;;;;;5.33;2.97;;;10.70;99.90;;;;;;5032872;28;20423;-73
2021/09/30 07:39:25;;;;;;;6.57;2.90;;;10.80;99.90;;;;;;5033314;28;20459;-72
2021/09/30 07:41:52;;;;;;;5.50;3.03;;;10.80;99.90;;;;;;5032851;28;20462;-72
2021/09/30 07:44:18;;;;;;;4.73;2.97;;;10.90;99.90;;;;;;5030072;28;20436;-72
2021/09/30 07:46:45;;;;;;;5.57;2.30;;;10.90;99.90;;;;;;5030617;28;20882;-72
2021/09/30 07:49:12;;;;;;;7.50;2.83;;;10.90;99.90;;;;;;5032127;28;21732;-72
2021/09/30 07:51:41;;;;;;;7.20;2.73;;;11.00;99.90;;;;;;5026432;28;20462;-72
2021/09/30 07:54:07;;;;;;;8.37;2.67;;;11.10;99.90;;;;;;5027218;28;20989;-72
2021/09/30 07:56:33;;;;;;;8.77;2.90;;;11.10;99.90;;;;;;5030925;28;20796;-72
2021/09/30 07:58:59;;;;;;;4.63;2.77;;;11.20;99.90;;;;;;5030966;28;20501;-72
2021/09/30 08:01:26;;;;;;;5.00;2.50;;;11.20;99.90;;;;;;5027660;28;20482;-72
2021/09/30 08:03:52;;;;;;;5.97;2.97;;;11.30;99.90;;;;;;5027590;28;20427;-72
2021/09/30 08:06:19;;;;;;;6.77;2.80;;;11.40;99.90;;;;;;5023408;28;20831;-72
2021/09/30 08:08:45;;;;;;;6.40;2.70;;;11.50;99.90;;;;;;5031214;28;20191;-73
2021/09/30 08:11:11;;;;;;;8.23;3.10;;;11.50;99.90;;;;;;5027649;28;20831;-73
2021/09/30 08:13:37;;;;;;;5.73;2.73;;;11.60;99.90;;;;;;5028123;28;20471;-72
2021/09/30 08:16:04;;;;;;;6.67;3.30;;;11.60;99.90;;;;;;5029432;28;20208;-72
2021/09/30 08:18:30;;;;;;;5.20;3.30;;;11.70;99.90;;;;;;5032116;28;20514;-72
2021/09/30 08:20:56;;;;;;;5.47;3.23;;;11.80;99.90;;;;;;5024237;28;20962;-73
2021/09/30 08:23:22;;;;;;;4.97;2.93;;;11.80;99.90;;;;;;5024090;28;20464;-73
2021/09/30 08:25:48;;;;;;;4.00;2.70;;;11.90;99.90;;;;;;5028371;28;20188;-73
2021/09/30 08:28:14;;;;;;;6.70;2.67;;;11.90;99.90;;;;;;5030923;28;20439;-73
2021/09/30 08:30:40;;;;;;;6.27;3.20;;;12.00;99.90;;;;;;5025250;28;20188;-73
2021/09/30 08:33:07;;;;;;;5.90;3.03;;;12.10;99.90;;;;;;5027274;28;20200;-73
2021/09/30 08:35:33;;;;;;;6.77;3.53;;;12.20;99.90;;;;;;5027995;28;20427;-73
2021/09/30 08:37:58;;;;;;;4.73;3.77;;;12.20;99.90;;;;;;5026711;28;20414;-72
2021/09/30 08:40:24;;;;;;;7.30;3.60;;;12.30;99.90;;;;;;5032244;28;20177;-72
2021/09/30 08:42:50;;;;;;;5.17;3.10;;;12.40;99.90;;;;;;5027734;28;20209;-73
2021/09/30 08:45:20;;;;;;;12.33;4.77;;;12.40;99.90;;;;;;5030273;28;20176;-73
2021/09/30 08:47:56;;;;;;;11.13;3.13;;;12.50;99.90;;;;;;5029872;28;20181;-72
2021/09/30 08:50:21;;;;;;;7.00;2.40;;;12.60;99.90;;;;;;5027182;28;20430;-73
2021/09/30 08:52:47;;;;;;;5.00;2.60;;;12.60;99.90;;;;;;5027560;28;20458;-73
2021/09/30 08:55:13;;;;;;;8.00;4.00;;;12.70;99.90;;;;;;5025616;28;20616;-73
2021/09/30 08:57:44;;;;;;;7.73;2.60;;;12.80;99.90;;;;;;5026770;28;20176;-73
2021/09/30 09:00:10;;;;;;;5.20;2.30;;;12.90;99.90;;;;;;5029591;28;20196;-73
2021/09/30 09:02:40;;;;;;;5.40;3.33;;;13.00;99.90;;;;;;5024487;28;20834;-73
2021/09/30 09:05:07;;;;;;;7.00;2.70;;;13.10;99.90;;;;;;5024104;28;20598;-72
2021/09/30 09:07:33;;;;;;;3.90;2.23;;;13.10;99.90;;;;;;5029982;28;20876;-73
2021/09/30 09:10:03;;;;;;;8.00;2.90;;;13.20;99.90;;;;;;5030646;28;20427;-73
2021/09/30 09:12:31;;;;;;;5.77;2.90;;;13.30;99.90;;;;;;5032851;28;20467;-72
2021/09/30 09:14:58;;;;;;;7.40;3.80;;;13.40;99.90;;;;;;5031446;28;20864;-72
2021/09/30 09:17:24;;;;;;;6.93;2.77;;;13.50;99.90;;;;;;5033087;28;21020;-72
2021/09/30 09:19:54;;;;;;;6.50;2.90;;;13.70;99.90;;;;;;5027679;28;20502;-72
2021/09/30 09:33:23;;;;;;;3.60;2.40;;;13.90;99.90;;;;;;5054681;28;21152;-72
2021/09/30 09:38:29;;;;;;;7.73;2.20;;;13.90;99.90;;;;;;5122941;27;20667;-72
2021/09/30 09:41:05;;;;;;;7.43;4.00;;;14.00;99.90;;;;;;5120749;28;20512;-73
2021/09/30 09:46:09;;;;;;;6.63;2.67;;;14.10;99.90;;;;;;5106521;27;20537;-72
2021/09/30 09:48:36;;;;;;;8.37;2.57;;;14.10;99.90;;;;;;5116044;28;20434;-73
2021/09/30 09:51:08;;;;;;;7.50;3.10;;;14.20;99.90;;;;;;5114794;28;20415;-73
2021/09/30 09:53:34;;;;;;;4.77;2.40;;;14.20;99.90;;;;;;5107690;28;21101;-73
2021/09/30 09:56:20;;;;;;;8.27;3.07;;;14.20;99.90;;;;;;5108534;28;20404;-73
2021/09/30 09:58:51;;;;;;;6.47;2.60;;;14.20;99.90;;;;;;5099707;28;20629;-73
2021/09/30 10:01:22;;;;;;;9.23;3.40;;;14.20;99.90;;;;;;5119869;28;20431;-73
2021/09/30 10:03:53;;;;;;;7.07;3.30;;;14.30;99.90;;;;;;5114982;28;20928;-73
2021/09/30 10:06:19;;;;;;;6.53;2.30;;;14.40;99.90;;;;;;5110573;28;20411;-72
2021/09/30 10:08:45;;;;;;;4.50;2.07;;;14.40;99.90;;;;;;5107968;28;21004;-73
2021/09/30 10:11:11;;;;;;;4.90;2.20;;;14.50;99.90;;;;;;5117480;28;20429;-73
2021/09/30 10:13:38;;;;;;;6.10;2.17;;;14.60;99.90;;;;;;5108927;28;20475;-74
2021/09/30 10:16:04;;;;;;;7.23;2.40;;;14.70;99.90;;;;;;5107138;28;20174;-73
2021/09/30 10:18:30;;;;;;;5.40;2.07;;;14.70;99.90;;;;;;5106919;28;20456;-73
2021/09/30 10:21:00;;;;;;;3.77;1.90;;;14.70;99.90;;;;;;5108698;28;20435;-73
2021/09/30 10:23:30;;;;;;;5.20;1.90;;;14.80;99.90;;;;;;5116416;28;20454;-73
2021/09/30 10:26:08;;;;;;;7.10;2.10;;;14.80;99.90;;;;;;5111716;28;20538;-73
2021/09/30 10:28:40;;;;;;;8.80;2.17;;;14.80;99.90;;;;;;5115534;28;20430;-73
2021/09/30 10:31:36;;;;;;;2.87;1.70;;;14.90;99.90;;;;;;5106531;28;20441;-73
2021/09/30 10:34:07;;;;;;;3.57;1.90;;;15.00;99.90;;;;;;5105700;28;20440;-73
2021/09/30 10:36:44;;;;;;;4.20;2.40;;;15.10;99.90;;;;;;5113674;28;20424;-73
2021/09/30 10:41:53;;;;;;;4.53;2.10;;;15.20;99.90;;;;;;5085200;27;20561;-73
2021/09/30 10:44:22;;;;;;;5.50;1.57;;;15.50;99.90;;;;;;5080873;28;20436;-73
2021/09/30 10:46:50;;;;;;;4.93;2.57;;;15.40;99.90;;;;;;5082541;28;20777;-73
2021/09/30 10:57:55;;;;;;;5.37;1.80;;;15.20;99.90;;;;;;5054434;28;20642;-71
2021/09/30 11:05:41;;;;;;;3.10;1.30;;;15.20;99.90;;;;;;5060886;28;20989;-73
2021/09/30 11:16:20;;;;;;;6.93;2.30;;;15.20;99.90;;;;;;5089568;28;21171;-71
2021/09/30 11:18:55;;;;;;;5.20;1.73;;;15.20;99.90;;;;;;5080574;28;20946;-72
2021/09/30 11:21:41;;;;;;;3.27;1.13;;;15.30;99.90;;;;;;5070607;28;20401;-71
2021/09/30 11:29:30;;;;;;;3.13;1.10;;;15.30;99.90;;;;;;5058982;28;21210;-72
2021/09/30 11:34:41;;;;;;;4.30;1.30;;;15.50;99.30;;;;;;5056372;28;20530;-73
2021/09/30 11:37:30;;;;;;;4.53;1.23;;;15.70;99.00;;;;;;5049243;28;20891;-73
2021/09/30 11:39:58;;;;;;;3.87;1.23;;;15.80;98.90;;;;;;5044855;28;20411;-73
2021/09/30 11:42:33;;;;;;;7.93;1.80;;;15.90;99.80;;;;;;5046678;28;20422;-73
2021/09/30 11:47:46;;;;;;;3.73;2.03;;;15.90;99.20;;;;;;5141806;27;20547;-72
2021/09/30 11:50:18;;;;;;;9.13;1.97;;;16.00;99.30;;;;;;5124023;28;20934;-72
2021/09/30 11:52:55;;;;;;;5.90;1.50;;;16.00;98.50;;;;;;5114973;28;20464;-72
2021/09/30 11:55:20;;;;;;;4.97;1.20;;;16.00;99.80;;;;;;5115291;28;20410;-71
2021/09/30 11:57:56;;;;;;;5.67;1.80;;;16.00;99.60;;;;;;5113898;28;20464;-72
2021/09/30 12:00:22;;;;;;;3.70;1.30;;;15.90;99.30;;;;;;5111538;28;20540;-72
2021/09/30 12:02:56;;;;;;;6.57;1.87;;;15.90;99.50;;;;;;5114178;28;20415;-72
2021/09/30 12:05:24;;;;;;;7.90;1.50;;;15.80;98.40;;;;;;5116958;28;20412;-72
2021/09/30 12:07:51;;;;;;;4.83;1.40;;;15.70;97.30;;;;;;5116233;28;20823;-72
2021/09/30 12:10:16;;;;;;;3.80;1.33;;;15.60;96.50;;;;;;5103610;28;20449;-72
2021/09/30 12:12:43;;;;;;;3.97;1.50;;;15.60;97.30;;;;;;5109495;28;20407;-72
2021/09/30 12:15:10;;;;;;;4.07;1.60;;;15.60;98.10;;;;;;5106239;28;20424;-72
2021/09/30 12:17:37;;;;;;;2.70;1.13;;;15.50;98.80;;;;;;5094180;28;20413;-72
2021/09/30 12:20:06;;;;;;;2.00;1.27;;;15.50;97.00;;;;;;5107893;28;20943;-72
2021/09/30 12:22:35;;;;;;;4.00;1.40;;;15.40;97.10;;;;;;5098718;28;20420;-72
2021/09/30 12:27:54;;;;;;;4.20;1.27;;;15.40;99.70;;;;;;5059314;28;20547;-70
2021/09/30 12:30:23;;;;;;;3.87;1.90;;;15.30;97.00;;;;;;5041430;28;20513;-71
2021/09/30 12:32:52;;;;;;;3.53;1.80;;;15.30;96.80;;;;;;5040093;28;20434;-73
2021/09/30 12:37:58;;;;;;;5.47;1.33;;;15.30;96.60;;;;;;5059527;28;20599;-72
2021/09/30 12:43:18;;;;;;;3.80;1.70;;;15.30;96.70;;;;;;5060598;28;20645;-72
2021/09/30 12:45:47;;;;;;;3.30;1.60;;;15.30;97.70;;;;;;5049645;28;20831;-72
2021/09/30 12:48:16;;;;;;;3.13;1.37;;;15.30;97.80;;;;;;5055687;28;20421;-72
2021/09/30 12:50:44;;;;;;;3.27;1.40;;;15.40;97.90;;;;;;5045340;28;20839;-73
2021/09/30 12:53:11;;;;;;;5.30;2.27;;;15.60;98.90;;;;;;5048037;28;20410;-73
2021/09/30 12:55:37;;;;;;;4.40;1.63;;;15.70;98.30;;;;;;5051085;28;20837;-72
2021/09/30 12:58:04;;;;;;;4.60;1.93;;;15.80;98.00;;;;;;5047823;28;20833;-73
2021/09/30 13:00:33;;;;;;;4.40;1.50;;;15.90;98.20;;;;;;5047450;28;20418;-71
2021/09/30 13:03:13;;;;;;;2.23;1.30;;;16.00;98.10;;;;;;5052330;28;20454;-73
2021/09/30 13:05:46;;;;;;;6.53;1.60;;;16.10;97.70;;;;;;5047518;28;20783;-72
2021/09/30 13:08:12;;;;;;;5.50;1.73;;;16.20;97.30;;;;;;5051750;28;20959;-72
2021/09/30 13:10:38;;;;;;;2.30;1.20;;;16.20;97.70;;;;;;5047807;28;20425;-72
2021/09/30 13:15:49;;;;;;;3.07;1.83;;;16.40;97.50;;;;;;5056055;28;20650;-73
2021/09/30 13:18:16;;;;;;;8.53;1.63;;;16.40;97.70;;;;;;5045934;28;20415;-73
2021/09/30 13:21:02;;;;;;;1.87;1.27;;;16.50;97.10;;;;;;5046634;28;20164;-73
2021/09/30 13:23:28;;;;;;;1.83;1.00;;;16.50;97.50;;;;;;5037282;28;20426;-73
2021/09/30 13:25:54;;;;;;;5.40;1.40;;;16.50;96.90;;;;;;5044910;28;20466;-73
2021/09/30 13:28:20;;;;;;;3.70;1.00;;;16.60;96.10;;;;;;5041729;28;20935;-73
2021/09/30 13:30:46;;;;;;;5.60;1.40;;;16.60;95.80;;;;;;5044551;28;20678;-73
2021/09/30 13:33:13;;;;;;;4.20;1.57;;;16.70;95.20;;;;;;5040034;28;20192;-73
2021/09/30 13:35:39;;;;;;;3.17;1.50;;;16.70;95.10;;;;;;5045147;28;20458;-73
2021/09/30 13:38:05;;;;;;;2.00;1.27;;;16.70;95.20;;;;;;5035488;28;20419;-73
2021/09/30 13:40:31;;;;;;;4.00;2.03;;;16.80;95.40;;;;;;5040351;28;20937;-73
2021/09/30 13:42:58;;;;;;;2.13;1.60;;;16.80;95.50;;;;;;5037282;28;20204;-73
2021/09/30 13:45:24;;;;;;;5.23;1.63;;;16.80;95.70;;;;;;5043370;28;20438;-73
2021/09/30 13:47:51;;;;;;;9.03;1.70;;;16.70;96.40;;;;;;5047612;28;20415;-73
2021/09/30 13:50:22;;;;;;;2.93;1.20;;;16.70;96.50;;;;;;5043953;28;20431;-73
2021/09/30 13:52:49;;;;;;;6.00;1.87;;;16.60;95.90;;;;;;5048341;28;20450;-73
2021/09/30 13:55:16;;;;;;;2.63;1.13;;;16.50;96.30;;;;;;5045029;28;20465;-73
2021/09/30 13:57:43;;;;;;;5.37;1.60;;;16.50;96.70;;;;;;5040034;28;20407;-73
2021/09/30 14:00:11;;;;;;;5.83;2.20;;;16.40;96.50;;;;;;5046033;28;20512;-73
2021/09/30 14:02:38;;;;;;;4.03;1.63;;;16.30;96.70;;;;;;5035973;28;20776;-73
2021/09/30 14:05:05;;;;;;;4.83;1.60;;;16.30;96.70;;;;;;5042426;28;20423;-73
2021/09/30 14:07:30;;;;;;;2.87;1.17;;;16.20;96.90;;;;;;5032180;28;20425;-73
2021/09/30 14:09:58;;;;;;;4.47;1.47;;;16.20;97.30;;;;;;5028081;28;20923;-73
2021/09/30 14:12:24;;;;;;;2.13;1.27;;;16.20;96.40;;;;;;5047872;28;20171;-72
2021/09/30 14:14:49;;;;;;;2.10;1.23;;;16.20;96.00;;;;;;5051047;28;20461;-72
2021/09/30 14:17:15;;;;;;;5.00;1.20;;;16.20;96.00;;;;;;5051169;28;20177;-72
2021/09/30 14:19:41;;;;;;;3.70;2.10;;;16.20;96.30;;;;;;5043044;28;20218;-72
2021/09/30 14:22:06;;;;;;;8.90;2.10;;;16.20;96.30;;;;;;5047599;28;20191;-72
2021/09/30 14:24:32;;;;;;;5.73;1.93;;;16.30;96.80;;;;;;5040505;28;20184;-72
2021/09/30 14:27:00;;;;;;;5.50;1.60;;;16.30;96.60;;;;;;5035999;28;20423;-72
2021/09/30 14:29:25;;;;;;;5.50;1.60;;;16.30;97.10;;;;;;5035416;28;20164;-72
2021/09/30 14:31:51;;;;;;;4.50;1.43;;;16.30;97.40;;;;;;5035465;28;20429;-72
2021/09/30 14:34:17;;;;;;;3.20;1.33;;;16.30;96.90;;;;;;5035807;28;20213;-72
2021/09/30 14:36:43;;;;;;;3.83;1.30;;;16.30;98.20;;;;;;5035053;28;20260;-72
2021/09/30 14:39:08;;;;;;;4.43;1.53;;;16.30;97.70;;;;;;5034095;28;20153;-72
2021/09/30 14:41:34;;;;;;;4.17;1.80;;;16.40;97.10;;;;;;5034252;28;20403;-72
2021/09/30 14:44:00;;;;;;;6.17;2.57;;;16.40;96.80;;;;;;5035018;28;20624;-72
2021/09/30 14:46:25;;;;;;;6.30;1.90;;;16.40;96.90;;;;;;5034976;28;20399;-72
2021/09/30 14:48:51;;;;;;;2.80;1.60;;;16.40;97.10;;;;;;5017560;28;20595;-72
2021/09/30 14:51:17;;;;;;;5.30;1.90;;;16.50;97.70;;;;;;5015244;28;20248;-72
2021/09/30 14:53:42;;;;;;;3.13;1.50;;;16.40;97.20;;;;;;5015086;28;20186;-72
2021/09/30 14:56:09;;;;;;;8.47;1.60;;;16.40;97.50;;;;;;5015094;28;20161;-72
2021/09/30 14:58:35;;;;;;;4.87;1.90;;;16.40;97.50;;;;;;5024322;28;20196;-72
2021/09/30 15:01:02;;;;;;;4.90;1.37;;;16.30;98.30;;;;;;5034848;28;20392;-72
2021/09/30 15:03:27;;;;;;;2.50;1.30;;;16.30;97.70;;;;;;5035274;28;20960;-72
2021/09/30 15:05:53;;;;;;;5.13;2.23;;;16.30;98.00;;;;;;5034997;28;20538;-72
2021/09/30 15:08:19;;;;;;;6.60;2.00;;;16.30;98.50;;;;;;5034592;28;20164;-72
2021/09/30 15:10:44;;;;;;;6.50;1.80;;;16.30;98.80;;;;;;5034520;28;20165;-72
2021/09/30 15:13:10;;;;;;;3.50;2.07;;;16.20;98.40;;;;;;5034268;28;20173;-72
2021/09/30 15:15:36;;;;;;;4.47;1.80;;;16.20;98.40;;;;;;5033255;28;20686;-72
2021/09/30 15:18:07;;;;;;;4.87;1.47;;;16.20;98.70;;;;;;5024418;28;20178;-72
2021/09/30 15:23:16;;;;;;;5.47;2.60;;;16.00;98.60;;;;;;5070345;28;20534;-72
2021/09/30 15:25:44;;;;;;;2.87;1.50;;;15.90;99.10;;;;;;5070546;28;20412;-73
2021/09/30 15:28:12;;;;;;;8.27;2.50;;;15.80;98.90;;;;;;5070039;28;20387;-72
2021/09/30 15:30:40;;;;;;;6.47;2.57;;;15.80;98.80;;;;;;5070012;28;20817;-72
2021/09/30 15:33:06;;;;;;;3.93;2.17;;;15.70;99.00;;;;;;5056843;28;20449;-72
2021/09/30 15:35:32;;;;;;;6.83;2.20;;;15.70;98.70;;;;;;5049878;28;20493;-72
2021/09/30 15:37:58;;;;;;;3.20;1.57;;;15.70;98.50;;;;;;5049940;28;20489;-72
2021/09/30 15:40:23;;;;;;;5.07;1.43;;;15.70;98.80;;;;;;5049877;28;20168;-72
2021/09/30 15:42:49;;;;;;;5.17;2.07;;;15.60;98.40;;;;;;5049665;28;20552;-72
2021/09/30 15:45:15;;;;;;;4.87;1.57;;;15.60;98.30;;;;;;5049954;28;20156;-72
2021/09/30 15:47:41;;;;;;;7.70;1.53;;;15.60;98.20;;;;;;5056767;28;20213;-72
2021/09/30 15:50:07;;;;;;;2.60;1.50;;;15.50;98.10;;;;;;5065335;28;20418;-72
2021/09/30 15:52:32;;;;;;;4.10;1.60;;;15.50;98.50;;;;;;5069450;28;20424;-72
2021/09/30 15:54:58;;;;;;;3.83;2.00;;;15.50;98.70;;;;;;5069293;28;20406;-73
2021/09/30 15:57:24;;;;;;;4.17;1.90;;;15.40;98.60;;;;;;5069611;28;20164;-73
2021/09/30 15:59:49;;;;;;;7.40;2.40;;;15.40;98.60;;;;;;5069771;28;20164;-73
2021/09/30 16:02:15;;;;;;;3.17;1.80;;;15.40;98.20;;;;;;5069773;28;20201;-73
2021/09/30 16:04:41;;;;;;;5.03;1.40;;;15.40;98.30;;;;;;5069351;28;20155;-72
2021/09/30 16:07:06;;;;;;;6.20;1.33;;;15.40;98.60;;;;;;5055896;28;20911;-72
2021/09/30 16:09:32;;;;;;;3.43;1.80;;;15.40;98.60;;;;;;5051842;28;20161;-72
2021/09/30 16:11:58;;;;;;;3.53;1.60;;;15.30;98.50;;;;;;5049392;28;20238;-72
2021/09/30 16:14:23;;;;;;;7.80;2.20;;;15.30;98.60;;;;;;5049506;28;20183;-72
2021/09/30 16:16:49;;;;;;;6.80;3.20;;;15.30;98.50;;;;;;5049335;28;20161;-72
2021/09/30 16:19:14;;;;;;;6.00;2.70;;;15.20;98.40;;;;;;5068644;28;20555;-72
2021/09/30 16:21:40;;;;;;;2.47;2.00;;;15.20;98.40;;;;;;5068859;28;20290;-72
2021/09/30 16:24:06;;;;;;;6.90;2.00;;;15.10;98.80;;;;;;5055187;28;20213;-72
2021/09/30 16:26:31;;;;;;;3.67;1.90;;;15.10;99.10;;;;;;5048591;28;20210;-72
2021/09/30 16:28:57;;;;;;;6.63;1.93;;;15.00;99.00;;;;;;5049153;28;20160;-72
2021/09/30 16:31:26;;;;;;;9.83;5.30;;;15.00;99.30;;;;;;5048835;28;20340;-72
2021/09/30 16:33:51;;;;;;;7.60;4.50;;;15.00;99.40;;;;;;5039436;28;20550;-72
2021/09/30 16:36:17;;;;;;;11.27;4.53;;;15.00;99.70;;;;;;5035491;28;20432;-72
2021/09/30 16:38:43;;;;;;;3.50;1.87;;;14.90;99.60;;;;;;5035212;28;20191;-72
2021/09/30 16:41:09;;;;;;;3.83;2.20;;;14.90;99.50;;;;;;5036176;28;20196;-72
2021/09/30 16:43:35;;;;;;;4.23;1.83;;;14.80;99.70;;;;;;5035999;28;20404;-72
2021/09/30 16:46:02;;;;;;;2.83;1.83;;;14.80;99.90;;;;;;5035269;28;20434;-72
2021/09/30 16:48:28;;;;;;;2.97;1.77;;;14.70;99.90;;;;;;5048141;28;20420;-72